sensor_id;sensor_type;location;lat;lon;timestamp;pressure;altitude;pressure_sealevel;temperature
20848;BMP180;10584;50.854;12.902;2023-07-13T00:04:25;97920.00;;;19.10
20848;BMP180;10584;50.854;12.902;2023-07-13T00:09:47;97917.00;;;19.20
20848;BMP180;10584;50.854;12.902;2023-07-13T00:15:22;97909.00;;;19.20
20848;BMP180;10584;50.854;12.902;2023-07-13T00:20:44;97910.00;;;19.20
20848;BMP180;10584;50.854;12.902;2023-07-13T00:26:06;97923.00;;;19.20
20848;BMP180;10584;50.854;12.902;2023-07-13T00:31:30;97921.00;;;19.10
20848;BMP180;10584;50.854;12.902;2023-07-13T00:36:52;97933.00;;;19.10
20848;BMP180;10584;50.854;12.902;2023-07-13T00:42:13;97937.00;;;19.00
20848;BMP180;10584;50.854;12.902;2023-07-13T00:47:35;97935.00;;;19.00
20848;BMP180;10584;50.854;12.902;2023-07-13T00:52:56;97924.00;;;19.00
20848;BMP180;10584;50.854;12.902;2023-07-13T00:58:20;97915.00;;;18.90
20848;BMP180;10584;50.854;12.902;2023-07-13T01:03:42;97899.00;;;18.90
20848;BMP180;10584;50.854;12.902;2023-07-13T01:09:04;97891.00;;;18.90
20848;BMP180;10584;50.854;12.902;2023-07-13T01:14:25;97897.00;;;18.80
20848;BMP180;10584;50.854;12.902;2023-07-13T01:19:47;97894.00;;;18.70
20848;BMP180;10584;50.854;12.902;2023-07-13T01:25:09;97896.00;;;18.60
20848;BMP180;10584;50.854;12.902;2023-07-13T01:30:31;97920.00;;;18.50
20848;BMP180;10584;50.854;12.902;2023-07-13T01:35:55;97906.00;;;18.50
20848;BMP180;10584;50.854;12.902;2023-07-13T01:41:18;97903.00;;;18.40
20848;BMP180;10584;50.854;12.902;2023-07-13T01:46:40;97906.00;;;18.40
20848;BMP180;10584;50.854;12.902;2023-07-13T01:52:01;97904.00;;;18.30
20848;BMP180;10584;50.854;12.902;2023-07-13T01:57:24;97912.00;;;18.30
20848;BMP180;10584;50.854;12.902;2023-07-13T02:02:46;97915.00;;;18.20
20848;BMP180;10584;50.854;12.902;2023-07-13T02:08:07;97912.00;;;18.20
20848;BMP180;10584;50.854;12.902;2023-07-13T02:13:28;97912.00;;;18.20
20848;BMP180;10584;50.854;12.902;2023-07-13T02:18:49;97909.00;;;18.20
20848;BMP180;10584;50.854;12.902;2023-07-13T02:24:13;97903.00;;;18.10
20848;BMP180;10584;50.854;12.902;2023-07-13T02:29:38;97907.00;;;18.00
20848;BMP180;10584;50.854;12.902;2023-07-13T02:35:00;97908.00;;;18.00
20848;BMP180;10584;50.854;12.902;2023-07-13T02:40:23;97904.00;;;17.90
20848;BMP180;10584;50.854;12.902;2023-07-13T02:45:46;97909.00;;;17.80
20848;BMP180;10584;50.854;12.902;2023-07-13T02:51:08;97916.00;;;17.80
20848;BMP180;10584;50.854;12.902;2023-07-13T02:56:32;97917.00;;;17.70
20848;BMP180;10584;50.854;12.902;2023-07-13T03:01:54;97925.00;;;17.70
20848;BMP180;10584;50.854;12.902;2023-07-13T03:07:16;97928.00;;;17.60
20848;BMP180;10584;50.854;12.902;2023-07-13T03:12:40;97934.00;;;17.60
20848;BMP180;10584;50.854;12.902;2023-07-13T03:18:07;97926.00;;;17.50
20848;BMP180;10584;50.854;12.902;2023-07-13T03:23:29;97941.00;;;17.50
20848;BMP180;10584;50.854;12.902;2023-07-13T03:28:51;97933.00;;;17.40
20848;BMP180;10584;50.854;12.902;2023-07-13T03:34:16;97939.00;;;17.40
20848;BMP180;10584;50.854;12.902;2023-07-13T03:39:37;97944.00;;;17.30
20848;BMP180;10584;50.854;12.902;2023-07-13T03:44:59;97942.00;;;17.30
20848;BMP180;10584;50.854;12.902;2023-07-13T03:50:21;97953.00;;;17.40
20848;BMP180;10584;50.854;12.902;2023-07-13T03:55:43;97960.00;;;17.30
20848;BMP180;10584;50.854;12.902;2023-07-13T04:01:08;97957.00;;;17.30
20848;BMP180;10584;50.854;12.902;2023-07-13T04:06:30;97962.00;;;17.30
20848;BMP180;10584;50.854;12.902;2023-07-13T04:11:52;97967.00;;;17.30
20848;BMP180;10584;50.854;12.902;2023-07-13T04:17:13;97968.00;;;17.30
20848;BMP180;10584;50.854;12.902;2023-07-13T04:22:34;97962.00;;;17.30
20848;BMP180;10584;50.854;12.902;2023-07-13T04:27:56;97960.00;;;17.40
20848;BMP180;10584;50.854;12.902;2023-07-13T04:33:18;97954.00;;;17.40
20848;BMP180;10584;50.854;12.902;2023-07-13T04:38:43;97948.00;;;17.30
20848;BMP180;10584;50.854;12.902;2023-07-13T04:44:05;97968.00;;;17.40
20848;BMP180;10584;50.854;12.902;2023-07-13T04:49:27;97963.00;;;17.40
20848;BMP180;10584;50.854;12.902;2023-07-13T04:54:48;97965.00;;;17.40
20848;BMP180;10584;50.854;12.902;2023-07-13T05:00:10;97977.00;;;17.60
20848;BMP180;10584;50.854;12.902;2023-07-13T05:05:32;97976.00;;;17.80
20848;BMP180;10584;50.854;12.902;2023-07-13T05:10:55;97982.00;;;18.00
20848;BMP180;10584;50.854;12.902;2023-07-13T05:16:16;97986.00;;;18.10
20848;BMP180;10584;50.854;12.902;2023-07-13T05:21:38;97998.00;;;18.20
20848;BMP180;10584;50.854;12.902;2023-07-13T05:26:59;97990.00;;;18.20
20848;BMP180;10584;50.854;12.902;2023-07-13T05:32:21;97989.00;;;18.20
20848;BMP180;10584;50.854;12.902;2023-07-13T05:37:43;97997.00;;;18.30
20848;BMP180;10584;50.854;12.902;2023-07-13T05:43:04;97998.00;;;18.50
20848;BMP180;10584;50.854;12.902;2023-07-13T05:48:25;97992.00;;;18.90
20848;BMP180;10584;50.854;12.902;2023-07-13T05:53:47;97996.00;;;19.30
20848;BMP180;10584;50.854;12.902;2023-07-13T05:59:08;98003.00;;;19.60
20848;BMP180;10584;50.854;12.902;2023-07-13T06:04:30;98008.00;;;19.80
20848;BMP180;10584;50.854;12.902;2023-07-13T06:09:51;98003.00;;;19.90
20848;BMP180;10584;50.854;12.902;2023-07-13T06:15:13;98011.00;;;20.00
20848;BMP180;10584;50.854;12.902;2023-07-13T06:20:39;98015.00;;;20.20
20848;BMP180;10584;50.854;12.902;2023-07-13T06:26:00;98026.00;;;20.10
20848;BMP180;10584;50.854;12.902;2023-07-13T06:31:22;98021.00;;;20.30
20848;BMP180;10584;50.854;12.902;2023-07-13T06:36:43;98029.00;;;20.40
20848;BMP180;10584;50.854;12.902;2023-07-13T06:42:06;98039.00;;;20.50
20848;BMP180;10584;50.854;12.902;2023-07-13T06:47:27;98038.00;;;20.60
20848;BMP180;10584;50.854;12.902;2023-07-13T06:52:50;98041.00;;;20.50
20848;BMP180;10584;50.854;12.902;2023-07-13T06:58:14;98040.00;;;20.90
20848;BMP180;10584;50.854;12.902;2023-07-13T07:03:35;98041.00;;;21.10
20848;BMP180;10584;50.854;12.902;2023-07-13T07:08:58;98036.00;;;21.50
20848;BMP180;10584;50.854;12.902;2023-07-13T07:14:19;98049.00;;;21.70
20848;BMP180;10584;50.854;12.902;2023-07-13T07:19:40;98045.00;;;22.00
20848;BMP180;10584;50.854;12.902;2023-07-13T07:25:02;98049.00;;;22.10
20848;BMP180;10584;50.854;12.902;2023-07-13T07:30:24;98042.00;;;22.30
20848;BMP180;10584;50.854;12.902;2023-07-13T07:35:48;98053.00;;;22.50
20848;BMP180;10584;50.854;12.902;2023-07-13T07:41:13;98054.00;;;22.90
20848;BMP180;10584;50.854;12.902;2023-07-13T07:46:38;98052.00;;;23.20
20848;BMP180;10584;50.854;12.902;2023-07-13T07:52:02;98053.00;;;23.20
20848;BMP180;10584;50.854;12.902;2023-07-13T07:57:24;98055.00;;;23.20
20848;BMP180;10584;50.854;12.902;2023-07-13T08:02:48;98064.00;;;23.40
20848;BMP180;10584;50.854;12.902;2023-07-13T08:08:12;98059.00;;;23.70
20848;BMP180;10584;50.854;12.902;2023-07-13T08:13:35;98071.00;;;23.90
20848;BMP180;10584;50.854;12.902;2023-07-13T08:18:56;98072.00;;;23.50
20848;BMP180;10584;50.854;12.902;2023-07-13T08:24:18;98086.00;;;23.30
20848;BMP180;10584;50.854;12.902;2023-07-13T08:29:40;98083.00;;;23.10
20848;BMP180;10584;50.854;12.902;2023-07-13T08:35:01;98085.00;;;23.10
20848;BMP180;10584;50.854;12.902;2023-07-13T08:40:25;98079.00;;;23.30
20848;BMP180;10584;50.854;12.902;2023-07-13T08:45:50;98087.00;;;23.50
20848;BMP180;10584;50.854;12.902;2023-07-13T08:51:23;98087.00;;;23.70
20848;BMP180;10584;50.854;12.902;2023-07-13T08:56:46;98089.00;;;23.90
20848;BMP180;10584;50.854;12.902;2023-07-13T09:18:46;98097.00;;;24.30
20848;BMP180;10584;50.854;12.902;2023-07-13T09:42:03;98131.00;;;23.80
20848;BMP180;10584;50.854;12.902;2023-07-13T09:47:30;98132.00;;;23.20
20848;BMP180;10584;50.854;12.902;2023-07-13T09:52:52;98146.00;;;22.80
20848;BMP180;10584;50.854;12.902;2023-07-13T09:58:25;98143.00;;;22.90
20848;BMP180;10584;50.854;12.902;2023-07-13T10:03:55;98143.00;;;22.90
20848;BMP180;10584;50.854;12.902;2023-07-13T10:09:17;98142.00;;;23.00
20848;BMP180;10584;50.854;12.902;2023-07-13T10:14:41;98142.00;;;23.20
20848;BMP180;10584;50.854;12.902;2023-07-13T10:20:05;98131.00;;;23.30
20848;BMP180;10584;50.854;12.902;2023-07-13T10:25:36;98133.00;;;23.80
20848;BMP180;10584;50.854;12.902;2023-07-13T10:31:01;98125.00;;;24.10
20848;BMP180;10584;50.854;12.902;2023-07-13T10:36:44;98133.00;;;24.40
20848;BMP180;10584;50.854;12.902;2023-07-13T10:42:11;98128.00;;;24.60
20848;BMP180;10584;50.854;12.902;2023-07-13T10:47:36;98126.00;;;24.70
20848;BMP180;10584;50.854;12.902;2023-07-13T10:58:43;98114.00;;;25.10
20848;BMP180;10584;50.854;12.902;2023-07-13T11:04:05;98126.00;;;24.90
20848;BMP180;10584;50.854;12.902;2023-07-13T11:09:39;98125.00;;;24.50
20848;BMP180;10584;50.854;12.902;2023-07-13T11:15:10;98141.00;;;23.80
20848;BMP180;10584;50.854;12.902;2023-07-13T11:20:40;98119.00;;;23.70
20848;BMP180;10584;50.854;12.902;2023-07-13T11:26:01;98120.00;;;23.80
20848;BMP180;10584;50.854;12.902;2023-07-13T11:31:26;98109.00;;;24.60
20848;BMP180;10584;50.854;12.902;2023-07-13T11:36:54;98113.00;;;24.90
20848;BMP180;10584;50.854;12.902;2023-07-13T11:42:18;98113.00;;;25.30
20848;BMP180;10584;50.854;12.902;2023-07-13T11:47:43;98116.00;;;25.40
20848;BMP180;10584;50.854;12.902;2023-07-13T11:53:04;98111.00;;;25.80
20848;BMP180;10584;50.854;12.902;2023-07-13T11:58:28;98107.00;;;25.80
20848;BMP180;10584;50.854;12.902;2023-07-13T12:03:50;98111.00;;;26.00
20848;BMP180;10584;50.854;12.902;2023-07-13T12:09:14;98106.00;;;26.00
20848;BMP180;10584;50.854;12.902;2023-07-13T12:14:40;98107.00;;;26.00
20848;BMP180;10584;50.854;12.902;2023-07-13T12:20:14;98108.00;;;25.80
20848;BMP180;10584;50.854;12.902;2023-07-13T12:25:38;98100.00;;;25.80
20848;BMP180;10584;50.854;12.902;2023-07-13T12:31:02;98098.00;;;25.50
20848;BMP180;10584;50.854;12.902;2023-07-13T12:36:24;98098.00;;;25.70
20848;BMP180;10584;50.854;12.902;2023-07-13T12:41:47;98091.00;;;25.80
20848;BMP180;10584;50.854;12.902;2023-07-13T12:47:15;98104.00;;;26.10
20848;BMP180;10584;50.854;12.902;2023-07-13T12:52:37;98103.00;;;26.40
20848;BMP180;10584;50.854;12.902;2023-07-13T12:57:59;98108.00;;;26.00
20848;BMP180;10584;50.854;12.902;2023-07-13T13:08:57;98118.00;;;25.90
20848;BMP180;10584;50.854;12.902;2023-07-13T13:14:22;98115.00;;;25.80
20848;BMP180;10584;50.854;12.902;2023-07-13T13:19:43;98106.00;;;26.20
20848;BMP180;10584;50.854;12.902;2023-07-13T13:25:07;98094.00;;;26.50
20848;BMP180;10584;50.854;12.902;2023-07-13T13:30:29;98102.00;;;26.90
20848;BMP180;10584;50.854;12.902;2023-07-13T13:35:51;98111.00;;;26.60
20848;BMP180;10584;50.854;12.902;2023-07-13T13:41:14;98110.00;;;26.30
20848;BMP180;10584;50.854;12.902;2023-07-13T13:46:35;98116.00;;;26.70
20848;BMP180;10584;50.854;12.902;2023-07-13T13:51:58;98106.00;;;26.90
20848;BMP180;10584;50.854;12.902;2023-07-13T13:57:21;98113.00;;;26.90
20848;BMP180;10584;50.854;12.902;2023-07-13T14:02:48;98112.00;;;26.60
20848;BMP180;10584;50.854;12.902;2023-07-13T14:08:20;98125.00;;;26.40
20848;BMP180;10584;50.854;12.902;2023-07-13T14:13:48;98123.00;;;26.40
20848;BMP180;10584;50.854;12.902;2023-07-13T14:19:12;98120.00;;;26.30
20848;BMP180;10584;50.854;12.902;2023-07-13T14:24:35;98126.00;;;26.30
20848;BMP180;10584;50.854;12.902;2023-07-13T14:29:57;98117.00;;;26.30
20848;BMP180;10584;50.854;12.902;2023-07-13T14:35:21;98119.00;;;26.50
20848;BMP180;10584;50.854;12.902;2023-07-13T14:40:43;98107.00;;;26.60
20848;BMP180;10584;50.854;12.902;2023-07-13T14:46:07;98113.00;;;26.40
20848;BMP180;10584;50.854;12.902;2023-07-13T14:51:31;98119.00;;;26.40
20848;BMP180;10584;50.854;12.902;2023-07-13T14:56:53;98116.00;;;26.30
20848;BMP180;10584;50.854;12.902;2023-07-13T15:07:39;98122.00;;;26.40
20848;BMP180;10584;50.854;12.902;2023-07-13T15:18:35;98112.00;;;26.20
20848;BMP180;10584;50.854;12.902;2023-07-13T15:23:59;98120.00;;;26.20
20848;BMP180;10584;50.854;12.902;2023-07-13T15:29:21;98122.00;;;26.40
20848;BMP180;10584;50.854;12.902;2023-07-13T15:34:44;98120.00;;;26.20
20848;BMP180;10584;50.854;12.902;2023-07-13T15:40:06;98107.00;;;26.10
20848;BMP180;10584;50.854;12.902;2023-07-13T15:45:28;98115.00;;;26.30
20848;BMP180;10584;50.854;12.902;2023-07-13T15:50:54;98112.00;;;26.50
20848;BMP180;10584;50.854;12.902;2023-07-13T15:56:22;98117.00;;;26.50
20848;BMP180;10584;50.854;12.902;2023-07-13T16:01:44;98120.00;;;26.60
20848;BMP180;10584;50.854;12.902;2023-07-13T16:07:10;98121.00;;;26.20
20848;BMP180;10584;50.854;12.902;2023-07-13T16:12:32;98127.00;;;25.80
20848;BMP180;10584;50.854;12.902;2023-07-13T16:17:55;98127.00;;;26.00
20848;BMP180;10584;50.854;12.902;2023-07-13T16:23:17;98126.00;;;26.20
20848;BMP180;10584;50.854;12.902;2023-07-13T16:28:39;98131.00;;;26.20
20848;BMP180;10584;50.854;12.902;2023-07-13T16:34:01;98135.00;;;26.00
20848;BMP180;10584;50.854;12.902;2023-07-13T16:39:23;98158.00;;;25.50
20848;BMP180;10584;50.854;12.902;2023-07-13T16:44:45;98143.00;;;25.30
20848;BMP180;10584;50.854;12.902;2023-07-13T16:50:21;98151.00;;;25.70
20848;BMP180;10584;50.854;12.902;2023-07-13T16:55:43;98153.00;;;25.50
20848;BMP180;10584;50.854;12.902;2023-07-13T17:01:07;98156.00;;;25.50
20848;BMP180;10584;50.854;12.902;2023-07-13T17:06:29;98154.00;;;25.40
20848;BMP180;10584;50.854;12.902;2023-07-13T17:11:51;98162.00;;;25.10
20848;BMP180;10584;50.854;12.902;2023-07-13T17:17:19;98168.00;;;25.10
20848;BMP180;10584;50.854;12.902;2023-07-13T17:22:44;98165.00;;;24.70
20848;BMP180;10584;50.854;12.902;2023-07-13T17:28:08;98172.00;;;24.80
20848;BMP180;10584;50.854;12.902;2023-07-13T17:33:37;98173.00;;;24.70
20848;BMP180;10584;50.854;12.902;2023-07-13T17:39:05;98180.00;;;24.80
20848;BMP180;10584;50.854;12.902;2023-07-13T17:44:31;98176.00;;;24.70
20848;BMP180;10584;50.854;12.902;2023-07-13T17:49:53;98186.00;;;24.60
20848;BMP180;10584;50.854;12.902;2023-07-13T17:55:18;98175.00;;;24.00
20848;BMP180;10584;50.854;12.902;2023-07-13T18:00:44;98192.00;;;24.00
20848;BMP180;10584;50.854;12.902;2023-07-13T18:06:16;98200.00;;;23.80
20848;BMP180;10584;50.854;12.902;2023-07-13T18:11:41;98196.00;;;23.50
20848;BMP180;10584;50.854;12.902;2023-07-13T18:17:03;98201.00;;;23.50
20848;BMP180;10584;50.854;12.902;2023-07-13T18:22:26;98202.00;;;23.20
20848;BMP180;10584;50.854;12.902;2023-07-13T18:27:47;98210.00;;;23.10
20848;BMP180;10584;50.854;12.902;2023-07-13T18:33:21;98216.00;;;23.00
20848;BMP180;10584;50.854;12.902;2023-07-13T18:38:44;98212.00;;;23.00
20848;BMP180;10584;50.854;12.902;2023-07-13T18:44:05;98210.00;;;22.90
20848;BMP180;10584;50.854;12.902;2023-07-13T18:49:27;98219.00;;;22.70
20848;BMP180;10584;50.854;12.902;2023-07-13T18:54:49;98225.00;;;22.60
20848;BMP180;10584;50.854;12.902;2023-07-13T19:00:13;98229.00;;;22.40
20848;BMP180;10584;50.854;12.902;2023-07-13T19:05:36;98242.00;;;22.30
20848;BMP180;10584;50.854;12.902;2023-07-13T19:11:20;98243.00;;;22.10
20848;BMP180;10584;50.854;12.902;2023-07-13T19:16:41;98248.00;;;22.00
20848;BMP180;10584;50.854;12.902;2023-07-13T19:22:03;98257.00;;;21.80
20848;BMP180;10584;50.854;12.902;2023-07-13T19:27:25;98270.00;;;21.60
20848;BMP180;10584;50.854;12.902;2023-07-13T19:32:46;98279.00;;;21.50
20848;BMP180;10584;50.854;12.902;2023-07-13T19:38:12;98285.00;;;21.50
20848;BMP180;10584;50.854;12.902;2023-07-13T19:43:38;98293.00;;;21.40
20848;BMP180;10584;50.854;12.902;2023-07-13T19:49:01;98293.00;;;21.20
20848;BMP180;10584;50.854;12.902;2023-07-13T19:54:23;98294.00;;;21.30
20848;BMP180;10584;50.854;12.902;2023-07-13T19:59:46;98302.00;;;21.20
20848;BMP180;10584;50.854;12.902;2023-07-13T20:05:15;98302.00;;;21.10
20848;BMP180;10584;50.854;12.902;2023-07-13T20:10:37;98311.00;;;21.00
20848;BMP180;10584;50.854;12.902;2023-07-13T20:15:58;98325.00;;;20.90
20848;BMP180;10584;50.854;12.902;2023-07-13T20:21:20;98325.00;;;20.70
20848;BMP180;10584;50.854;12.902;2023-07-13T20:26:43;98330.00;;;20.70
20848;BMP180;10584;50.854;12.902;2023-07-13T20:32:07;98335.00;;;20.70
20848;BMP180;10584;50.854;12.902;2023-07-13T20:37:37;98337.00;;;20.60
20848;BMP180;10584;50.854;12.902;2023-07-13T20:42:59;98347.00;;;20.70
20848;BMP180;10584;50.854;12.902;2023-07-13T20:53:49;98358.00;;;20.50
20848;BMP180;10584;50.854;12.902;2023-07-13T20:59:13;98355.00;;;20.60
20848;BMP180;10584;50.854;12.902;2023-07-13T21:04:35;98356.00;;;20.50
20848;BMP180;10584;50.854;12.902;2023-07-13T21:09:57;98366.00;;;20.40
20848;BMP180;10584;50.854;12.902;2023-07-13T21:15:21;98373.00;;;20.30
20848;BMP180;10584;50.854;12.902;2023-07-13T21:20:45;98381.00;;;20.10
20848;BMP180;10584;50.854;12.902;2023-07-13T21:26:08;98394.00;;;20.00
20848;BMP180;10584;50.854;12.902;2023-07-13T21:31:34;98405.00;;;19.90
20848;BMP180;10584;50.854;12.902;2023-07-13T21:36:58;98416.00;;;19.80
20848;BMP180;10584;50.854;12.902;2023-07-13T21:42:21;98426.00;;;19.50
20848;BMP180;10584;50.854;12.902;2023-07-13T21:47:43;98428.00;;;19.50
20848;BMP180;10584;50.854;12.902;2023-07-13T21:53:28;98437.00;;;19.20
20848;BMP180;10584;50.854;12.902;2023-07-13T21:58:50;98434.00;;;19.10
20848;BMP180;10584;50.854;12.902;2023-07-13T22:04:13;98443.00;;;18.90
20848;BMP180;10584;50.854;12.902;2023-07-13T22:09:38;98453.00;;;18.80
20848;BMP180;10584;50.854;12.902;2023-07-13T22:15:00;98443.00;;;18.80
20848;BMP180;10584;50.854;12.902;2023-07-13T22:20:23;98449.00;;;18.60
20848;BMP180;10584;50.854;12.902;2023-07-13T22:25:46;98442.00;;;18.40
20848;BMP180;10584;50.854;12.902;2023-07-13T22:31:13;98441.00;;;18.30
20848;BMP180;10584;50.854;12.902;2023-07-13T22:36:35;98452.00;;;18.10
20848;BMP180;10584;50.854;12.902;2023-07-13T22:41:57;98449.00;;;18.10
20848;BMP180;10584;50.854;12.902;2023-07-13T22:47:20;98453.00;;;18.00
20848;BMP180;10584;50.854;12.902;2023-07-13T22:52:43;98448.00;;;17.90
20848;BMP180;10584;50.854;12.902;2023-07-13T22:58:04;98448.00;;;17.80
20848;BMP180;10584;50.854;12.902;2023-07-13T23:03:31;98454.00;;;17.70
20848;BMP180;10584;50.854;12.902;2023-07-13T23:08:53;98458.00;;;17.50
20848;BMP180;10584;50.854;12.902;2023-07-13T23:14:14;98463.00;;;17.40
20848;BMP180;10584;50.854;12.902;2023-07-13T23:19:36;98456.00;;;17.30
20848;BMP180;10584;50.854;12.902;2023-07-13T23:25:01;98458.00;;;17.20
20848;BMP180;10584;50.854;12.902;2023-07-13T23:30:25;98464.00;;;17.10
20848;BMP180;10584;50.854;12.902;2023-07-13T23:35:48;98466.00;;;17.00
20848;BMP180;10584;50.854;12.902;2023-07-13T23:41:16;98464.00;;;16.80
20848;BMP180;10584;50.854;12.902;2023-07-13T23:52:11;98452.00;;;16.70
20848;BMP180;10584;50.854;12.902;2023-07-13T23:57:33;98450.00;;;16.60
